sensor_id;sensor_type;location;lat;lon;timestamp;P1;durP1;ratioP1;P2;durP2;ratioP2
18048;SDS011;9149;47.002;8.604;2022-07-29T00:01:05;1.70;;;1.20;;
18048;SDS011;9149;47.002;8.604;2022-07-29T00:03:44;1.33;;;1.10;;
18048;SDS011;9149;47.002;8.604;2022-07-29T00:06:12;2.70;;;1.15;;
18048;SDS011;9149;47.002;8.604;2022-07-29T00:08:40;1.33;;;1.17;;
18048;SDS011;9149;47.002;8.604;2022-07-29T00:11:08;1.67;;;1.10;;
18048;SDS011;9149;47.002;8.604;2022-07-29T00:13:35;1.63;;;1.10;;
18048;SDS011;9149;47.002;8.604;2022-07-29T00:16:04;1.33;;;0.95;;
18048;SDS011;9149;47.002;8.604;2022-07-29T00:18:32;7.55;;;1.40;;
18048;SDS011;9149;47.002;8.604;2022-07-29T00:21:00;1.75;;;0.98;;
18048;SDS011;9149;47.002;8.604;2022-07-29T00:23:27;1.48;;;1.15;;
18048;SDS011;9149;47.002;8.604;2022-07-29T00:26:00;1.30;;;1.10;;
18048;SDS011;9149;47.002;8.604;2022-07-29T00:28:28;2.05;;;1.27;;
18048;SDS011;9149;47.002;8.604;2022-07-29T00:30:55;4.55;;;1.30;;
18048;SDS011;9149;47.002;8.604;2022-07-29T00:33:24;1.20;;;1.00;;
18048;SDS011;9149;47.002;8.604;2022-07-29T00:35:52;1.80;;;1.20;;
18048;SDS011;9149;47.002;8.604;2022-07-29T00:38:20;1.38;;;1.10;;
18048;SDS011;9149;47.002;8.604;2022-07-29T00:40:48;1.20;;;1.02;;
18048;SDS011;9149;47.002;8.604;2022-07-29T00:43:16;1.40;;;1.02;;
18048;SDS011;9149;47.002;8.604;2022-07-29T00:45:44;2.22;;;1.30;;
18048;SDS011;9149;47.002;8.604;2022-07-29T00:48:12;1.48;;;1.10;;
18048;SDS011;9149;47.002;8.604;2022-07-29T00:50:41;2.28;;;1.02;;
18048;SDS011;9149;47.002;8.604;2022-07-29T00:53:08;2.20;;;1.40;;
18048;SDS011;9149;47.002;8.604;2022-07-29T00:55:39;1.40;;;1.10;;
18048;SDS011;9149;47.002;8.604;2022-07-29T00:58:06;4.93;;;1.23;;
18048;SDS011;9149;47.002;8.604;2022-07-29T01:00:34;2.17;;;1.00;;
18048;SDS011;9149;47.002;8.604;2022-07-29T01:03:03;1.52;;;1.15;;
18048;SDS011;9149;47.002;8.604;2022-07-29T01:05:31;1.77;;;1.15;;
18048;SDS011;9149;47.002;8.604;2022-07-29T01:08:18;6.03;;;1.40;;
18048;SDS011;9149;47.002;8.604;2022-07-29T01:10:46;5.88;;;1.33;;
18048;SDS011;9149;47.002;8.604;2022-07-29T01:13:14;3.30;;;1.20;;
18048;SDS011;9149;47.002;8.604;2022-07-29T01:15:43;1.20;;;1.00;;
18048;SDS011;9149;47.002;8.604;2022-07-29T01:18:16;2.13;;;1.33;;
18048;SDS011;9149;47.002;8.604;2022-07-29T01:20:53;1.67;;;1.10;;
18048;SDS011;9149;47.002;8.604;2022-07-29T01:23:36;1.45;;;1.20;;
18048;SDS011;9149;47.002;8.604;2022-07-29T01:26:13;2.05;;;1.38;;
18048;SDS011;9149;47.002;8.604;2022-07-29T01:28:49;2.10;;;1.45;;
18048;SDS011;9149;47.002;8.604;2022-07-29T01:31:20;1.75;;;1.50;;
18048;SDS011;9149;47.002;8.604;2022-07-29T01:34:08;3.00;;;1.35;;
18048;SDS011;9149;47.002;8.604;2022-07-29T01:36:40;3.45;;;1.70;;
18048;SDS011;9149;47.002;8.604;2022-07-29T01:39:11;4.55;;;1.35;;
18048;SDS011;9149;47.002;8.604;2022-07-29T01:41:40;2.17;;;1.23;;
18048;SDS011;9149;47.002;8.604;2022-07-29T01:44:15;1.63;;;1.25;;
18048;SDS011;9149;47.002;8.604;2022-07-29T01:46:47;3.65;;;1.20;;
18048;SDS011;9149;47.002;8.604;2022-07-29T01:49:17;2.55;;;1.00;;
18048;SDS011;9149;47.002;8.604;2022-07-29T01:51:47;1.60;;;1.10;;
18048;SDS011;9149;47.002;8.604;2022-07-29T01:54:16;2.15;;;1.40;;
18048;SDS011;9149;47.002;8.604;2022-07-29T01:56:47;2.65;;;1.30;;
18048;SDS011;9149;47.002;8.604;2022-07-29T01:59:17;1.38;;;1.20;;
18048;SDS011;9149;47.002;8.604;2022-07-29T02:01:46;3.17;;;1.33;;
18048;SDS011;9149;47.002;8.604;2022-07-29T02:04:20;1.98;;;1.35;;
18048;SDS011;9149;47.002;8.604;2022-07-29T02:06:57;2.47;;;1.27;;
18048;SDS011;9149;47.002;8.604;2022-07-29T02:09:26;4.38;;;1.23;;
18048;SDS011;9149;47.002;8.604;2022-07-29T02:11:54;1.23;;;1.10;;
18048;SDS011;9149;47.002;8.604;2022-07-29T02:14:24;1.75;;;1.20;;
18048;SDS011;9149;47.002;8.604;2022-07-29T02:16:53;3.13;;;1.48;;
18048;SDS011;9149;47.002;8.604;2022-07-29T02:19:22;6.72;;;1.60;;
18048;SDS011;9149;47.002;8.604;2022-07-29T02:21:51;2.38;;;1.45;;
18048;SDS011;9149;47.002;8.604;2022-07-29T02:24:20;1.92;;;1.38;;
18048;SDS011;9149;47.002;8.604;2022-07-29T02:26:50;1.85;;;1.38;;
18048;SDS011;9149;47.002;8.604;2022-07-29T02:29:18;3.08;;;1.50;;
18048;SDS011;9149;47.002;8.604;2022-07-29T02:31:48;2.80;;;1.30;;
18048;SDS011;9149;47.002;8.604;2022-07-29T02:34:16;2.00;;;1.17;;
18048;SDS011;9149;47.002;8.604;2022-07-29T02:36:45;4.03;;;1.20;;
18048;SDS011;9149;47.002;8.604;2022-07-29T02:39:15;2.10;;;1.10;;
18048;SDS011;9149;47.002;8.604;2022-07-29T02:41:43;3.58;;;1.25;;
18048;SDS011;9149;47.002;8.604;2022-07-29T02:44:12;2.28;;;1.20;;
18048;SDS011;9149;47.002;8.604;2022-07-29T02:46:42;1.90;;;1.20;;
18048;SDS011;9149;47.002;8.604;2022-07-29T02:49:14;2.25;;;1.60;;
18048;SDS011;9149;47.002;8.604;2022-07-29T02:51:43;4.13;;;1.52;;
18048;SDS011;9149;47.002;8.604;2022-07-29T02:54:16;2.85;;;1.45;;
18048;SDS011;9149;47.002;8.604;2022-07-29T02:56:46;9.35;;;1.38;;
18048;SDS011;9149;47.002;8.604;2022-07-29T02:59:15;1.83;;;1.40;;
18048;SDS011;9149;47.002;8.604;2022-07-29T03:01:45;1.88;;;1.10;;
18048;SDS011;9149;47.002;8.604;2022-07-29T03:04:14;1.88;;;1.30;;
18048;SDS011;9149;47.002;8.604;2022-07-29T03:06:44;2.00;;;1.30;;
18048;SDS011;9149;47.002;8.604;2022-07-29T03:09:12;2.55;;;1.50;;
18048;SDS011;9149;47.002;8.604;2022-07-29T03:11:40;2.15;;;1.33;;
18048;SDS011;9149;47.002;8.604;2022-07-29T03:14:16;2.33;;;1.70;;
18048;SDS011;9149;47.002;8.604;2022-07-29T03:16:46;2.17;;;1.48;;
18048;SDS011;9149;47.002;8.604;2022-07-29T03:19:15;1.45;;;1.15;;
18048;SDS011;9149;47.002;8.604;2022-07-29T03:21:43;4.00;;;1.75;;
18048;SDS011;9149;47.002;8.604;2022-07-29T03:24:23;2.60;;;1.40;;
18048;SDS011;9149;47.002;8.604;2022-07-29T03:26:51;5.55;;;1.52;;
18048;SDS011;9149;47.002;8.604;2022-07-29T03:29:18;2.42;;;1.60;;
18048;SDS011;9149;47.002;8.604;2022-07-29T03:31:47;9.95;;;1.80;;
18048;SDS011;9149;47.002;8.604;2022-07-29T03:34:16;7.93;;;1.75;;
18048;SDS011;9149;47.002;8.604;2022-07-29T03:36:46;2.75;;;1.40;;
18048;SDS011;9149;47.002;8.604;2022-07-29T03:39:14;2.00;;;1.42;;
18048;SDS011;9149;47.002;8.604;2022-07-29T03:41:43;7.32;;;1.35;;
18048;SDS011;9149;47.002;8.604;2022-07-29T03:44:13;1.80;;;1.30;;
18048;SDS011;9149;47.002;8.604;2022-07-29T03:46:42;1.70;;;1.40;;
18048;SDS011;9149;47.002;8.604;2022-07-29T03:49:10;2.90;;;1.58;;
18048;SDS011;9149;47.002;8.604;2022-07-29T03:51:39;2.10;;;1.45;;
18048;SDS011;9149;47.002;8.604;2022-07-29T03:54:07;4.65;;;1.50;;
18048;SDS011;9149;47.002;8.604;2022-07-29T03:56:37;2.22;;;1.65;;
18048;SDS011;9149;47.002;8.604;2022-07-29T03:59:05;2.25;;;1.48;;
18048;SDS011;9149;47.002;8.604;2022-07-29T04:01:34;3.55;;;1.83;;
18048;SDS011;9149;47.002;8.604;2022-07-29T04:04:02;2.20;;;1.40;;
18048;SDS011;9149;47.002;8.604;2022-07-29T04:06:37;2.78;;;1.90;;
18048;SDS011;9149;47.002;8.604;2022-07-29T04:09:06;3.13;;;1.88;;
18048;SDS011;9149;47.002;8.604;2022-07-29T04:11:35;2.35;;;1.90;;
18048;SDS011;9149;47.002;8.604;2022-07-29T04:14:23;2.45;;;1.83;;
18048;SDS011;9149;47.002;8.604;2022-07-29T04:16:51;4.03;;;1.95;;
18048;SDS011;9149;47.002;8.604;2022-07-29T04:19:19;2.45;;;1.73;;
18048;SDS011;9149;47.002;8.604;2022-07-29T04:21:46;2.47;;;1.80;;
18048;SDS011;9149;47.002;8.604;2022-07-29T04:24:15;4.75;;;1.65;;
18048;SDS011;9149;47.002;8.604;2022-07-29T04:26:45;5.18;;;1.75;;
18048;SDS011;9149;47.002;8.604;2022-07-29T04:29:13;2.40;;;1.70;;
18048;SDS011;9149;47.002;8.604;2022-07-29T04:31:41;4.57;;;1.88;;
18048;SDS011;9149;47.002;8.604;2022-07-29T04:34:09;3.45;;;1.73;;
18048;SDS011;9149;47.002;8.604;2022-07-29T04:36:37;2.63;;;1.55;;
18048;SDS011;9149;47.002;8.604;2022-07-29T04:39:04;2.38;;;1.45;;
18048;SDS011;9149;47.002;8.604;2022-07-29T04:41:33;2.65;;;1.60;;
18048;SDS011;9149;47.002;8.604;2022-07-29T04:44:01;3.38;;;1.95;;
18048;SDS011;9149;47.002;8.604;2022-07-29T04:46:32;2.22;;;1.60;;
18048;SDS011;9149;47.002;8.604;2022-07-29T04:49:00;2.10;;;1.30;;
18048;SDS011;9149;47.002;8.604;2022-07-29T04:51:28;2.38;;;1.60;;
18048;SDS011;9149;47.002;8.604;2022-07-29T04:53:56;2.60;;;1.60;;
18048;SDS011;9149;47.002;8.604;2022-07-29T04:56:24;2.08;;;1.55;;
18048;SDS011;9149;47.002;8.604;2022-07-29T04:58:53;1.80;;;1.60;;
18048;SDS011;9149;47.002;8.604;2022-07-29T05:01:20;5.90;;;1.65;;
18048;SDS011;9149;47.002;8.604;2022-07-29T05:03:48;3.03;;;1.83;;
18048;SDS011;9149;47.002;8.604;2022-07-29T05:06:33;5.57;;;1.73;;
18048;SDS011;9149;47.002;8.604;2022-07-29T05:09:01;2.50;;;1.80;;
18048;SDS011;9149;47.002;8.604;2022-07-29T05:11:28;5.18;;;2.00;;
18048;SDS011;9149;47.002;8.604;2022-07-29T05:13:57;2.47;;;1.65;;
18048;SDS011;9149;47.002;8.604;2022-07-29T05:16:25;2.30;;;1.60;;
18048;SDS011;9149;47.002;8.604;2022-07-29T05:18:53;6.32;;;1.80;;
18048;SDS011;9149;47.002;8.604;2022-07-29T05:21:21;4.57;;;1.67;;
18048;SDS011;9149;47.002;8.604;2022-07-29T05:23:48;5.43;;;1.55;;
18048;SDS011;9149;47.002;8.604;2022-07-29T05:26:16;2.95;;;1.58;;
18048;SDS011;9149;47.002;8.604;2022-07-29T05:28:44;1.98;;;1.50;;
18048;SDS011;9149;47.002;8.604;2022-07-29T05:31:13;4.13;;;1.70;;
18048;SDS011;9149;47.002;8.604;2022-07-29T05:33:42;2.97;;;1.40;;
18048;SDS011;9149;47.002;8.604;2022-07-29T05:36:10;4.75;;;1.40;;
18048;SDS011;9149;47.002;8.604;2022-07-29T05:38:38;9.57;;;1.67;;
18048;SDS011;9149;47.002;8.604;2022-07-29T05:41:05;4.07;;;1.33;;
18048;SDS011;9149;47.002;8.604;2022-07-29T05:43:33;2.22;;;1.38;;
18048;SDS011;9149;47.002;8.604;2022-07-29T05:46:01;2.00;;;1.40;;
18048;SDS011;9149;47.002;8.604;2022-07-29T05:48:30;2.45;;;1.50;;
18048;SDS011;9149;47.002;8.604;2022-07-29T05:50:57;3.78;;;1.40;;
18048;SDS011;9149;47.002;8.604;2022-07-29T05:53:25;3.05;;;1.13;;
18048;SDS011;9149;47.002;8.604;2022-07-29T05:55:52;2.05;;;1.55;;
18048;SDS011;9149;47.002;8.604;2022-07-29T05:58:38;2.00;;;1.50;;
18048;SDS011;9149;47.002;8.604;2022-07-29T06:01:05;7.55;;;1.75;;
18048;SDS011;9149;47.002;8.604;2022-07-29T06:03:34;2.25;;;1.33;;
18048;SDS011;9149;47.002;8.604;2022-07-29T06:06:04;9.32;;;1.65;;
18048;SDS011;9149;47.002;8.604;2022-07-29T06:08:32;2.65;;;1.50;;
18048;SDS011;9149;47.002;8.604;2022-07-29T06:11:00;5.03;;;1.42;;
18048;SDS011;9149;47.002;8.604;2022-07-29T06:13:27;3.67;;;1.65;;
18048;SDS011;9149;47.002;8.604;2022-07-29T06:15:55;2.70;;;1.48;;
18048;SDS011;9149;47.002;8.604;2022-07-29T06:18:24;5.22;;;1.50;;
18048;SDS011;9149;47.002;8.604;2022-07-29T06:20:53;1.95;;;1.40;;
18048;SDS011;9149;47.002;8.604;2022-07-29T06:23:21;2.45;;;1.42;;
18048;SDS011;9149;47.002;8.604;2022-07-29T06:25:49;2.53;;;1.42;;
18048;SDS011;9149;47.002;8.604;2022-07-29T06:28:16;2.30;;;1.60;;
18048;SDS011;9149;47.002;8.604;2022-07-29T06:30:44;3.17;;;1.20;;
18048;SDS011;9149;47.002;8.604;2022-07-29T06:33:15;6.97;;;1.20;;
18048;SDS011;9149;47.002;8.604;2022-07-29T06:35:43;2.95;;;1.50;;
18048;SDS011;9149;47.002;8.604;2022-07-29T06:38:20;5.20;;;1.52;;
18048;SDS011;9149;47.002;8.604;2022-07-29T06:40:59;2.33;;;1.23;;
18048;SDS011;9149;47.002;8.604;2022-07-29T06:43:27;2.22;;;1.42;;
18048;SDS011;9149;47.002;8.604;2022-07-29T06:45:59;2.58;;;1.40;;
18048;SDS011;9149;47.002;8.604;2022-07-29T06:48:27;1.60;;;1.30;;
18048;SDS011;9149;47.002;8.604;2022-07-29T06:50:55;2.28;;;1.40;;
18048;SDS011;9149;47.002;8.604;2022-07-29T06:53:24;1.77;;;1.10;;
18048;SDS011;9149;47.002;8.604;2022-07-29T06:55:52;2.92;;;1.30;;
18048;SDS011;9149;47.002;8.604;2022-07-29T06:58:20;2.58;;;1.27;;
18048;SDS011;9149;47.002;8.604;2022-07-29T07:00:55;3.00;;;1.27;;
18048;SDS011;9149;47.002;8.604;2022-07-29T07:03:23;3.30;;;1.70;;
18048;SDS011;9149;47.002;8.604;2022-07-29T07:05:51;3.17;;;1.75;;
18048;SDS011;9149;47.002;8.604;2022-07-29T07:08:19;2.53;;;1.70;;
18048;SDS011;9149;47.002;8.604;2022-07-29T07:10:48;2.58;;;1.90;;
18048;SDS011;9149;47.002;8.604;2022-07-29T07:13:16;2.78;;;1.55;;
18048;SDS011;9149;47.002;8.604;2022-07-29T07:15:44;2.63;;;1.52;;
18048;SDS011;9149;47.002;8.604;2022-07-29T07:18:14;2.15;;;1.58;;
18048;SDS011;9149;47.002;8.604;2022-07-29T07:20:42;8.52;;;1.60;;
18048;SDS011;9149;47.002;8.604;2022-07-29T07:23:10;4.07;;;1.98;;
18048;SDS011;9149;47.002;8.604;2022-07-29T07:25:38;2.95;;;2.03;;
18048;SDS011;9149;47.002;8.604;2022-07-29T07:28:06;9.88;;;2.00;;
18048;SDS011;9149;47.002;8.604;2022-07-29T07:30:34;4.40;;;1.80;;
18048;SDS011;9149;47.002;8.604;2022-07-29T07:33:02;4.78;;;1.90;;
18048;SDS011;9149;47.002;8.604;2022-07-29T07:35:29;4.40;;;1.60;;
18048;SDS011;9149;47.002;8.604;2022-07-29T07:37:57;2.78;;;1.90;;
18048;SDS011;9149;47.002;8.604;2022-07-29T07:40:25;4.88;;;1.88;;
18048;SDS011;9149;47.002;8.604;2022-07-29T07:42:52;2.30;;;1.60;;
18048;SDS011;9149;47.002;8.604;2022-07-29T07:45:22;2.70;;;1.80;;
18048;SDS011;9149;47.002;8.604;2022-07-29T07:47:51;5.82;;;1.98;;
18048;SDS011;9149;47.002;8.604;2022-07-29T07:50:19;2.25;;;1.60;;
18048;SDS011;9149;47.002;8.604;2022-07-29T07:52:47;5.82;;;1.75;;
18048;SDS011;9149;47.002;8.604;2022-07-29T07:55:15;4.40;;;2.00;;
18048;SDS011;9149;47.002;8.604;2022-07-29T07:57:43;3.33;;;1.60;;
18048;SDS011;9149;47.002;8.604;2022-07-29T08:00:11;5.75;;;1.90;;
18048;SDS011;9149;47.002;8.604;2022-07-29T08:02:41;5.15;;;2.15;;
18048;SDS011;9149;47.002;8.604;2022-07-29T08:05:09;3.25;;;1.92;;
18048;SDS011;9149;47.002;8.604;2022-07-29T08:07:38;2.72;;;1.83;;
18048;SDS011;9149;47.002;8.604;2022-07-29T08:10:06;7.05;;;2.13;;
18048;SDS011;9149;47.002;8.604;2022-07-29T08:12:34;4.72;;;1.73;;
18048;SDS011;9149;47.002;8.604;2022-07-29T08:15:01;6.00;;;1.77;;
18048;SDS011;9149;47.002;8.604;2022-07-29T08:17:29;5.70;;;1.75;;
18048;SDS011;9149;47.002;8.604;2022-07-29T08:20:02;4.60;;;1.80;;
18048;SDS011;9149;47.002;8.604;2022-07-29T08:22:30;3.85;;;1.90;;
18048;SDS011;9149;47.002;8.604;2022-07-29T08:24:57;3.08;;;1.88;;
18048;SDS011;9149;47.002;8.604;2022-07-29T08:27:25;2.35;;;1.90;;
18048;SDS011;9149;47.002;8.604;2022-07-29T08:30:10;3.55;;;1.90;;
18048;SDS011;9149;47.002;8.604;2022-07-29T08:32:38;4.85;;;2.08;;
18048;SDS011;9149;47.002;8.604;2022-07-29T08:35:24;2.25;;;1.58;;
18048;SDS011;9149;47.002;8.604;2022-07-29T08:37:52;3.70;;;1.85;;
18048;SDS011;9149;47.002;8.604;2022-07-29T08:40:20;2.40;;;1.60;;
18048;SDS011;9149;47.002;8.604;2022-07-29T08:42:58;2.67;;;1.92;;
18048;SDS011;9149;47.002;8.604;2022-07-29T08:45:25;5.18;;;2.10;;
18048;SDS011;9149;47.002;8.604;2022-07-29T08:47:55;2.83;;;1.95;;
18048;SDS011;9149;47.002;8.604;2022-07-29T08:50:24;2.58;;;1.60;;
18048;SDS011;9149;47.002;8.604;2022-07-29T08:52:51;4.32;;;1.80;;
18048;SDS011;9149;47.002;8.604;2022-07-29T08:55:25;2.53;;;2.00;;
18048;SDS011;9149;47.002;8.604;2022-07-29T08:57:53;4.95;;;1.70;;
18048;SDS011;9149;47.002;8.604;2022-07-29T09:00:22;2.67;;;1.58;;
18048;SDS011;9149;47.002;8.604;2022-07-29T09:02:54;4.25;;;1.90;;
18048;SDS011;9149;47.002;8.604;2022-07-29T09:05:24;3.65;;;1.90;;
18048;SDS011;9149;47.002;8.604;2022-07-29T09:07:53;4.85;;;1.95;;
18048;SDS011;9149;47.002;8.604;2022-07-29T09:10:21;1.80;;;1.35;;
18048;SDS011;9149;47.002;8.604;2022-07-29T09:12:48;2.47;;;1.73;;
18048;SDS011;9149;47.002;8.604;2022-07-29T09:15:17;2.55;;;1.60;;
18048;SDS011;9149;47.002;8.604;2022-07-29T09:17:45;1.73;;;1.40;;
18048;SDS011;9149;47.002;8.604;2022-07-29T09:20:14;2.30;;;1.42;;
18048;SDS011;9149;47.002;8.604;2022-07-29T09:22:43;3.35;;;1.60;;
18048;SDS011;9149;47.002;8.604;2022-07-29T09:25:15;2.53;;;1.50;;
18048;SDS011;9149;47.002;8.604;2022-07-29T09:28:05;2.13;;;1.60;;
18048;SDS011;9149;47.002;8.604;2022-07-29T09:30:32;3.47;;;1.90;;
18048;SDS011;9149;47.002;8.604;2022-07-29T09:33:01;3.85;;;2.00;;
18048;SDS011;9149;47.002;8.604;2022-07-29T09:35:29;6.75;;;1.60;;
18048;SDS011;9149;47.002;8.604;2022-07-29T09:37:58;3.53;;;1.92;;
18048;SDS011;9149;47.002;8.604;2022-07-29T09:40:37;4.28;;;1.67;;
18048;SDS011;9149;47.002;8.604;2022-07-29T09:43:09;3.55;;;2.00;;
18048;SDS011;9149;47.002;8.604;2022-07-29T09:45:38;5.30;;;2.05;;
18048;SDS011;9149;47.002;8.604;2022-07-29T09:48:13;2.60;;;1.90;;
18048;SDS011;9149;47.002;8.604;2022-07-29T09:50:42;5.00;;;1.70;;
18048;SDS011;9149;47.002;8.604;2022-07-29T09:53:12;3.75;;;2.20;;
18048;SDS011;9149;47.002;8.604;2022-07-29T09:55:56;4.20;;;2.13;;
18048;SDS011;9149;47.002;8.604;2022-07-29T09:58:24;6.53;;;2.08;;
18048;SDS011;9149;47.002;8.604;2022-07-29T10:00:52;5.85;;;1.88;;
18048;SDS011;9149;47.002;8.604;2022-07-29T10:03:21;2.70;;;1.77;;
18048;SDS011;9149;47.002;8.604;2022-07-29T10:06:03;2.72;;;1.85;;
18048;SDS011;9149;47.002;8.604;2022-07-29T10:08:32;4.57;;;1.90;;
18048;SDS011;9149;47.002;8.604;2022-07-29T10:11:08;7.55;;;2.55;;
18048;SDS011;9149;47.002;8.604;2022-07-29T10:13:36;2.72;;;1.98;;
18048;SDS011;9149;47.002;8.604;2022-07-29T10:16:04;4.07;;;2.20;;
18048;SDS011;9149;47.002;8.604;2022-07-29T10:18:32;2.58;;;1.60;;
18048;SDS011;9149;47.002;8.604;2022-07-29T10:20:59;4.55;;;1.98;;
18048;SDS011;9149;47.002;8.604;2022-07-29T10:23:28;2.95;;;1.73;;
18048;SDS011;9149;47.002;8.604;2022-07-29T10:26:13;1.98;;;1.73;;
18048;SDS011;9149;47.002;8.604;2022-07-29T10:28:43;2.20;;;1.73;;
18048;SDS011;9149;47.002;8.604;2022-07-29T10:31:12;2.58;;;1.50;;
18048;SDS011;9149;47.002;8.604;2022-07-29T10:33:46;3.30;;;1.80;;
18048;SDS011;9149;47.002;8.604;2022-07-29T10:36:19;1.95;;;1.60;;
18048;SDS011;9149;47.002;8.604;2022-07-29T10:38:52;3.08;;;1.50;;
18048;SDS011;9149;47.002;8.604;2022-07-29T10:41:28;3.08;;;1.83;;
18048;SDS011;9149;47.002;8.604;2022-07-29T10:44:12;3.75;;;1.60;;
18048;SDS011;9149;47.002;8.604;2022-07-29T10:46:45;4.80;;;1.88;;
18048;SDS011;9149;47.002;8.604;2022-07-29T10:49:13;4.07;;;1.80;;
18048;SDS011;9149;47.002;8.604;2022-07-29T10:51:51;4.95;;;1.80;;
18048;SDS011;9149;47.002;8.604;2022-07-29T10:54:36;4.90;;;1.77;;
18048;SDS011;9149;47.002;8.604;2022-07-29T10:57:12;2.40;;;1.55;;
18048;SDS011;9149;47.002;8.604;2022-07-29T10:59:40;2.65;;;1.58;;
18048;SDS011;9149;47.002;8.604;2022-07-29T11:05:09;2.63;;;1.85;;
18048;SDS011;9149;47.002;8.604;2022-07-29T11:07:39;2.58;;;1.92;;
18048;SDS011;9149;47.002;8.604;2022-07-29T11:10:19;4.40;;;2.05;;
18048;SDS011;9149;47.002;8.604;2022-07-29T11:12:53;4.63;;;1.92;;
18048;SDS011;9149;47.002;8.604;2022-07-29T11:15:22;2.95;;;1.92;;
18048;SDS011;9149;47.002;8.604;2022-07-29T11:20:33;6.70;;;2.13;;
18048;SDS011;9149;47.002;8.604;2022-07-29T11:25:44;3.53;;;1.98;;
18048;SDS011;9149;47.002;8.604;2022-07-29T11:28:32;4.28;;;2.20;;
18048;SDS011;9149;47.002;8.604;2022-07-29T11:31:02;5.20;;;2.20;;
18048;SDS011;9149;47.002;8.604;2022-07-29T11:33:31;3.22;;;2.30;;
18048;SDS011;9149;47.002;8.604;2022-07-29T11:36:19;6.40;;;2.28;;
18048;SDS011;9149;47.002;8.604;2022-07-29T11:39:05;3.50;;;2.28;;
18048;SDS011;9149;47.002;8.604;2022-07-29T11:45:00;4.85;;;2.15;;
18048;SDS011;9149;47.002;8.604;2022-07-29T11:47:49;3.50;;;1.92;;
18048;SDS011;9149;47.002;8.604;2022-07-29T11:50:26;3.10;;;2.30;;
18048;SDS011;9149;47.002;8.604;2022-07-29T11:52:54;3.60;;;2.20;;
18048;SDS011;9149;47.002;8.604;2022-07-29T11:55:23;2.95;;;2.05;;
18048;SDS011;9149;47.002;8.604;2022-07-29T11:57:58;2.67;;;2.17;;
18048;SDS011;9149;47.002;8.604;2022-07-29T12:00:31;3.00;;;2.10;;
18048;SDS011;9149;47.002;8.604;2022-07-29T12:03:02;4.63;;;2.63;;
18048;SDS011;9149;47.002;8.604;2022-07-29T12:05:32;6.30;;;2.25;;
18048;SDS011;9149;47.002;8.604;2022-07-29T12:08:04;3.13;;;2.17;;
18048;SDS011;9149;47.002;8.604;2022-07-29T12:10:38;7.00;;;2.30;;
18048;SDS011;9149;47.002;8.604;2022-07-29T12:13:05;3.42;;;2.33;;
18048;SDS011;9149;47.002;8.604;2022-07-29T12:15:36;3.65;;;2.55;;
18048;SDS011;9149;47.002;8.604;2022-07-29T12:18:14;3.17;;;2.40;;
18048;SDS011;9149;47.002;8.604;2022-07-29T12:20:44;3.83;;;2.75;;
18048;SDS011;9149;47.002;8.604;2022-07-29T12:23:12;5.88;;;3.08;;
18048;SDS011;9149;47.002;8.604;2022-07-29T12:25:42;4.93;;;2.70;;
18048;SDS011;9149;47.002;8.604;2022-07-29T12:28:15;6.28;;;2.88;;
18048;SDS011;9149;47.002;8.604;2022-07-29T12:30:54;6.55;;;3.65;;
18048;SDS011;9149;47.002;8.604;2022-07-29T12:33:22;5.03;;;3.03;;
18048;SDS011;9149;47.002;8.604;2022-07-29T12:35:50;6.82;;;3.20;;
18048;SDS011;9149;47.002;8.604;2022-07-29T12:38:33;5.03;;;3.10;;
18048;SDS011;9149;47.002;8.604;2022-07-29T12:41:01;6.45;;;2.90;;
18048;SDS011;9149;47.002;8.604;2022-07-29T12:43:30;10.10;;;2.95;;
18048;SDS011;9149;47.002;8.604;2022-07-29T12:46:10;7.82;;;2.80;;
18048;SDS011;9149;47.002;8.604;2022-07-29T12:48:39;3.08;;;2.30;;
18048;SDS011;9149;47.002;8.604;2022-07-29T12:51:07;5.18;;;2.47;;
18048;SDS011;9149;47.002;8.604;2022-07-29T12:53:36;11.68;;;3.08;;
18048;SDS011;9149;47.002;8.604;2022-07-29T12:56:04;4.82;;;3.10;;
18048;SDS011;9149;47.002;8.604;2022-07-29T12:58:52;5.15;;;2.85;;
18048;SDS011;9149;47.002;8.604;2022-07-29T13:01:21;5.10;;;2.97;;
18048;SDS011;9149;47.002;8.604;2022-07-29T13:03:51;9.95;;;2.92;;
18048;SDS011;9149;47.002;8.604;2022-07-29T13:09:01;9.10;;;3.05;;
18048;SDS011;9149;47.002;8.604;2022-07-29T13:11:30;4.72;;;2.88;;
18048;SDS011;9149;47.002;8.604;2022-07-29T13:13:59;4.18;;;3.05;;
18048;SDS011;9149;47.002;8.604;2022-07-29T13:16:33;5.72;;;3.65;;
18048;SDS011;9149;47.002;8.604;2022-07-29T13:19:05;6.07;;;3.10;;
18048;SDS011;9149;47.002;8.604;2022-07-29T13:21:33;6.88;;;3.60;;
18048;SDS011;9149;47.002;8.604;2022-07-29T13:24:01;5.63;;;3.05;;
18048;SDS011;9149;47.002;8.604;2022-07-29T13:26:28;9.18;;;2.90;;
18048;SDS011;9149;47.002;8.604;2022-07-29T13:28:56;9.20;;;3.53;;
18048;SDS011;9149;47.002;8.604;2022-07-29T13:31:24;5.25;;;3.60;;
18048;SDS011;9149;47.002;8.604;2022-07-29T13:33:53;5.97;;;3.22;;
18048;SDS011;9149;47.002;8.604;2022-07-29T13:36:23;5.35;;;3.55;;
18048;SDS011;9149;47.002;8.604;2022-07-29T13:38:51;9.80;;;3.25;;
18048;SDS011;9149;47.002;8.604;2022-07-29T13:41:18;5.93;;;3.88;;
18048;SDS011;9149;47.002;8.604;2022-07-29T13:43:46;5.20;;;3.40;;
18048;SDS011;9149;47.002;8.604;2022-07-29T13:46:15;6.45;;;3.42;;
18048;SDS011;9149;47.002;8.604;2022-07-29T13:48:43;6.75;;;3.13;;
18048;SDS011;9149;47.002;8.604;2022-07-29T13:51:12;6.60;;;3.55;;
18048;SDS011;9149;47.002;8.604;2022-07-29T13:53:39;6.97;;;3.47;;
18048;SDS011;9149;47.002;8.604;2022-07-29T13:56:07;6.43;;;3.85;;
18048;SDS011;9149;47.002;8.604;2022-07-29T13:58:35;8.80;;;3.50;;
18048;SDS011;9149;47.002;8.604;2022-07-29T14:01:03;7.30;;;3.70;;
18048;SDS011;9149;47.002;8.604;2022-07-29T14:03:31;5.97;;;3.83;;
18048;SDS011;9149;47.002;8.604;2022-07-29T14:05:59;5.93;;;3.58;;
18048;SDS011;9149;47.002;8.604;2022-07-29T14:08:28;5.38;;;3.40;;
18048;SDS011;9149;47.002;8.604;2022-07-29T14:10:56;6.60;;;3.38;;
18048;SDS011;9149;47.002;8.604;2022-07-29T14:13:23;7.10;;;3.35;;
18048;SDS011;9149;47.002;8.604;2022-07-29T14:15:52;4.93;;;3.25;;
18048;SDS011;9149;47.002;8.604;2022-07-29T14:18:19;4.30;;;3.42;;
18048;SDS011;9149;47.002;8.604;2022-07-29T14:20:47;5.80;;;3.25;;
18048;SDS011;9149;47.002;8.604;2022-07-29T14:23:15;4.40;;;3.03;;
18048;SDS011;9149;47.002;8.604;2022-07-29T14:25:47;5.93;;;3.33;;
18048;SDS011;9149;47.002;8.604;2022-07-29T14:28:15;5.45;;;3.50;;
18048;SDS011;9149;47.002;8.604;2022-07-29T14:30:43;5.32;;;3.67;;
18048;SDS011;9149;47.002;8.604;2022-07-29T14:33:11;5.05;;;3.30;;
18048;SDS011;9149;47.002;8.604;2022-07-29T14:35:38;4.30;;;3.25;;
18048;SDS011;9149;47.002;8.604;2022-07-29T14:38:06;5.32;;;3.50;;
18048;SDS011;9149;47.002;8.604;2022-07-29T14:40:34;6.00;;;3.10;;
18048;SDS011;9149;47.002;8.604;2022-07-29T14:43:03;9.90;;;3.42;;
18048;SDS011;9149;47.002;8.604;2022-07-29T14:45:31;7.05;;;3.58;;
18048;SDS011;9149;47.002;8.604;2022-07-29T14:47:59;8.55;;;3.60;;
18048;SDS011;9149;47.002;8.604;2022-07-29T14:50:27;6.60;;;3.33;;
18048;SDS011;9149;47.002;8.604;2022-07-29T14:52:57;5.55;;;3.10;;
18048;SDS011;9149;47.002;8.604;2022-07-29T14:55:25;7.65;;;3.15;;
18048;SDS011;9149;47.002;8.604;2022-07-29T14:57:53;6.45;;;3.55;;
18048;SDS011;9149;47.002;8.604;2022-07-29T15:00:35;5.78;;;3.35;;
18048;SDS011;9149;47.002;8.604;2022-07-29T15:03:04;10.98;;;4.93;;
18048;SDS011;9149;47.002;8.604;2022-07-29T15:05:37;7.85;;;4.10;;
18048;SDS011;9149;47.002;8.604;2022-07-29T15:08:05;5.03;;;3.90;;
18048;SDS011;9149;47.002;8.604;2022-07-29T15:10:34;6.32;;;4.25;;
18048;SDS011;9149;47.002;8.604;2022-07-29T15:13:19;6.13;;;4.13;;
18048;SDS011;9149;47.002;8.604;2022-07-29T15:15:48;6.40;;;4.22;;
18048;SDS011;9149;47.002;8.604;2022-07-29T15:18:16;6.22;;;3.70;;
18048;SDS011;9149;47.002;8.604;2022-07-29T15:20:51;5.85;;;3.63;;
18048;SDS011;9149;47.002;8.604;2022-07-29T15:23:19;6.35;;;3.92;;
18048;SDS011;9149;47.002;8.604;2022-07-29T15:25:47;5.22;;;3.40;;
18048;SDS011;9149;47.002;8.604;2022-07-29T15:28:14;6.13;;;3.50;;
18048;SDS011;9149;47.002;8.604;2022-07-29T15:30:42;6.95;;;3.88;;
18048;SDS011;9149;47.002;8.604;2022-07-29T15:33:11;5.32;;;3.45;;